Time;durP1;ratioP1;P1;durP2;ratioP2;P2;SDS_P1;SDS_P2;PMS_P1;PMS_P2;Temp;Humidity;BMP_temperature;BMP_pressure;BME280_temperature;BME280_humidity;BME280_pressure;Samples;Min_cycle;Max_cycle;Signal;HPM_P1;HPM_P2
2022/03/12 00:00:35;;;;;;;72.87;31.47;;;0.50;70.90;;;;;;5005279;28;20358;-88
2022/03/12 00:03:24;;;;;;;76.17;33.17;;;0.50;71.00;;;;;;4987518;28;20237;-86
2022/03/12 00:06:13;;;;;;;77.10;34.43;;;0.40;71.30;;;;;;4987276;28;20324;-81
2022/03/12 00:09:05;;;;;;;81.50;34.37;;;0.40;71.40;;;;;;5006402;28;20247;-84
2022/03/12 00:12:00;;;;;;;81.13;34.33;;;0.40;71.70;;;;;;4995533;28;20884;-84
2022/03/12 00:14:50;;;;;;;76.23;33.73;;;0.30;71.90;;;;;;5000356;28;20398;-83
2022/03/12 00:17:42;;;;;;;79.10;33.60;;;0.20;72.00;;;;;;4990292;28;20225;-83
2022/03/12 00:20:32;;;;;;;82.83;33.77;;;0.30;72.10;;;;;;5006182;28;20705;-83
2022/03/12 00:23:21;;;;;;;70.90;31.70;;;0.30;72.10;;;;;;4996910;28;20224;-82
2022/03/12 00:26:12;;;;;;;76.20;32.47;;;0.30;72.00;;;;;;4999080;28;20233;-84
2022/03/12 00:29:02;;;;;;;70.43;31.17;;;0.30;71.90;;;;;;4987058;28;20505;-84
2022/03/12 00:31:53;;;;;;;76.53;32.97;;;0.40;71.90;;;;;;4983665;28;20271;-83
2022/03/12 00:34:42;;;;;;;76.97;32.00;;;0.40;71.80;;;;;;5001017;28;20212;-85
2022/03/12 00:37:31;;;;;;;80.20;33.70;;;0.40;72.20;;;;;;5002677;28;20225;-83
2022/03/12 00:40:21;;;;;;;80.80;33.60;;;0.40;72.50;;;;;;5001173;28;20231;-82
2022/03/12 00:43:11;;;;;;;79.97;34.83;;;0.30;72.90;;;;;;4987436;28;20287;-81
2022/03/12 00:46:02;;;;;;;83.90;34.87;;;0.30;73.20;;;;;;5001499;28;20227;-83
2022/03/12 00:48:53;;;;;;;85.67;33.93;;;0.30;74.40;;;;;;4984780;28;20236;-81
2022/03/12 00:51:44;;;;;;;80.90;36.13;;;0.30;74.10;;;;;;4984812;28;20222;-84
2022/03/12 00:54:34;;;;;;;89.83;34.90;;;0.20;74.20;;;;;;4989033;28;20237;-84
2022/03/12 00:57:23;;;;;;;88.57;34.50;;;0.20;74.40;;;;;;4989323;28;20217;-86
2022/03/12 01:00:15;;;;;;;84.80;33.70;;;0.20;75.00;;;;;;5002085;28;20274;-84
2022/03/12 01:03:04;;;;;;;73.70;32.53;;;0.20;74.90;;;;;;5009566;28;20219;-83
2022/03/12 01:05:58;;;;;;;82.97;34.57;;;0.10;75.50;;;;;;4989715;28;20239;-84
2022/03/12 01:08:48;;;;;;;84.60;32.47;;;0.20;74.90;;;;;;5019846;28;20210;-85
2022/03/12 01:11:38;;;;;;;78.53;33.43;;;0.10;74.90;;;;;;5003887;28;20211;-84
2022/03/12 01:14:27;;;;;;;77.63;31.23;;;0.10;74.90;;;;;;4992406;28;20211;-84
2022/03/12 01:17:16;;;;;;;71.90;30.73;;;0.20;74.60;;;;;;4998825;28;20223;-83
2022/03/12 01:20:08;;;;;;;70.50;30.87;;;0.10;74.80;;;;;;5005577;28;20238;-84
2022/03/12 01:22:58;;;;;;;66.47;28.53;;;0.10;75.00;;;;;;4987812;28;20291;-85
2022/03/12 01:25:48;;;;;;;74.93;31.07;;;0.20;74.80;;;;;;4990995;28;20295;-85
2022/03/12 01:28:37;;;;;;;81.60;32.23;;;0.20;74.70;;;;;;4993625;28;20231;-85
2022/03/12 01:31:26;;;;;;;70.03;30.53;;;0.20;75.30;;;;;;5005182;28;20234;-84
2022/03/12 01:34:14;;;;;;;68.57;30.90;;;0.20;75.50;;;;;;5002572;28;20224;-84
2022/03/12 01:37:05;;;;;;;67.80;30.00;;;0.20;75.70;;;;;;4974961;28;20731;-84
2022/03/12 01:39:55;;;;;;;74.43;31.23;;;0.10;75.30;;;;;;4991209;28;20236;-84
2022/03/12 01:42:44;;;;;;;76.07;32.87;;;0.20;75.10;;;;;;4990767;28;20253;-85
2022/03/12 01:45:36;;;;;;;80.23;31.53;;;0.20;75.30;;;;;;4991925;28;20227;-85
2022/03/12 01:48:25;;;;;;;76.80;31.93;;;0.10;75.40;;;;;;4994182;28;20686;-85
2022/03/12 01:51:14;;;;;;;77.57;33.97;;;0.00;75.30;;;;;;4995151;28;20230;-87
2022/03/12 01:54:04;;;;;;;81.17;34.73;;;0.10;75.50;;;;;;4990612;28;20245;-86
2022/03/12 01:56:55;;;;;;;82.83;34.60;;;0.10;75.90;;;;;;4990327;28;20231;-86
2022/03/12 01:59:45;;;;;;;87.50;36.27;;;0.00;76.30;;;;;;5000279;28;20234;-85
2022/03/12 02:02:34;;;;;;;88.83;36.70;;;0.00;77.10;;;;;;4989520;28;20227;-85
2022/03/12 02:05:27;;;;;;;84.57;35.40;;;0.00;77.40;;;;;;4994451;28;20269;-84
2022/03/12 02:08:18;;;;;;;87.97;37.53;;;-0.10;78.20;;;;;;4984841;28;20229;-84
2022/03/12 02:11:07;;;;;;;89.73;36.47;;;0.00;78.30;;;;;;5005900;28;20227;-84
2022/03/12 02:14:03;;;;;;;84.53;36.07;;;-0.10;79.10;;;;;;4981762;28;20313;-87
2022/03/12 02:16:55;;;;;;;86.83;37.10;;;-0.10;79.20;;;;;;4998184;28;20314;-86
2022/03/12 02:19:44;;;;;;;93.07;36.43;;;0.00;79.40;;;;;;4986658;28;20214;-85
2022/03/12 02:22:33;;;;;;;83.30;36.20;;;0.00;79.50;;;;;;5006622;28;20222;-84
2022/03/12 02:25:28;;;;;;;94.50;37.53;;;0.00;79.60;;;;;;4996556;28;20658;-83
2022/03/12 02:28:18;;;;;;;91.00;35.50;;;-0.10;80.20;;;;;;4988823;28;20226;-84
2022/03/12 02:31:07;;;;;;;75.67;32.73;;;-0.10;80.60;;;;;;4991947;28;20237;-83
2022/03/12 02:34:01;;;;;;;79.53;33.13;;;-0.10;80.60;;;;;;5005372;28;20250;-84
2022/03/12 02:36:51;;;;;;;86.93;36.03;;;-0.10;80.50;;;;;;4987613;28;20308;-83
2022/03/12 02:39:40;;;;;;;85.30;34.80;;;-0.10;81.30;;;;;;5001038;28;20210;-84
2022/03/12 02:42:31;;;;;;;84.67;34.70;;;-0.20;82.20;;;;;;4985199;28;20512;-83
2022/03/12 02:45:23;;;;;;;76.87;32.73;;;-0.20;82.80;;;;;;4987051;28;20225;-84
2022/03/12 02:48:12;;;;;;;86.77;33.67;;;-0.40;83.80;;;;;;5004776;28;20231;-82
2022/03/12 02:51:01;;;;;;;80.73;32.70;;;-0.30;82.80;;;;;;4992557;28;20661;-81
2022/03/12 02:53:51;;;;;;;76.57;33.83;;;-0.30;83.20;;;;;;4985439;28;20296;-82
2022/03/12 02:56:41;;;;;;;89.10;34.13;;;-0.30;83.10;;;;;;4988792;28;20229;-82
2022/03/12 02:59:32;;;;;;;84.00;33.83;;;-0.30;83.30;;;;;;4988829;28;20592;-82
2022/03/12 03:02:25;;;;;;;78.67;33.07;;;-0.30;83.00;;;;;;4990227;28;20231;-83
2022/03/12 03:05:23;;;;;;;74.77;32.17;;;-0.30;83.80;;;;;;5006483;28;20219;-83
2022/03/12 03:08:18;;;;;;;76.60;32.10;;;-0.20;83.00;;;;;;4989049;28;20230;-82
2022/03/12 03:11:12;;;;;;;73.70;30.87;;;-0.30;84.00;;;;;;4991117;28;20218;-82
2022/03/12 03:14:01;;;;;;;70.03;29.20;;;-0.30;83.70;;;;;;5002547;28;20255;-83
2022/03/12 03:16:51;;;;;;;69.03;27.80;;;-0.30;82.80;;;;;;4982161;28;20317;-82
2022/03/12 03:19:44;;;;;;;63.63;28.13;;;-0.30;81.50;;;;;;4989048;28;20649;-82
2022/03/12 03:22:33;;;;;;;62.90;27.00;;;-0.40;81.40;;;;;;4989525;28;20224;-81
2022/03/12 03:25:22;;;;;;;62.23;26.83;;;-0.40;81.70;;;;;;5000329;28;20244;-81
2022/03/12 03:28:11;;;;;;;65.97;25.90;;;-0.40;81.70;;;;;;4990480;28;20231;-81
2022/03/12 03:31:00;;;;;;;67.67;27.23;;;-0.40;80.80;;;;;;5001538;28;20811;-84
2022/03/12 03:33:53;;;;;;;68.13;27.93;;;-0.40;81.20;;;;;;4989585;28;20456;-83
2022/03/12 03:36:43;;;;;;;54.07;24.20;;;-0.40;80.90;;;;;;5001726;28;20317;-85
2022/03/12 03:39:32;;;;;;;52.10;22.67;;;-0.30;79.70;;;;;;4982232;28;20224;-83
2022/03/12 03:42:22;;;;;;;64.93;25.20;;;-0.30;78.30;;;;;;4999249;28;20734;-83
2022/03/12 03:45:11;;;;;;;56.80;24.43;;;-0.30;79.50;;;;;;4990018;28;20221;-82
2022/03/12 03:48:00;;;;;;;50.93;23.27;;;-0.40;78.60;;;;;;4995719;28;20285;-82
2022/03/12 03:50:52;;;;;;;51.70;23.37;;;-0.40;77.90;;;;;;4987706;28;20324;-82
2022/03/12 03:53:41;;;;;;;51.07;23.10;;;-0.40;78.40;;;;;;4983824;28;20231;-82
2022/03/12 03:56:30;;;;;;;51.10;22.63;;;-0.40;78.00;;;;;;4983463;28;20585;-82
2022/03/12 03:59:19;;;;;;;48.30;21.43;;;-0.40;77.90;;;;;;4986697;28;20223;-84
2022/03/12 04:02:10;;;;;;;50.37;21.03;;;-0.50;77.80;;;;;;4987358;28;20734;-84
2022/03/12 04:04:59;;;;;;;52.77;20.63;;;-0.40;77.90;;;;;;4994103;28;20238;-84
2022/03/12 04:07:49;;;;;;;61.27;24.23;;;-0.40;78.40;;;;;;4984345;28;20236;-85
2022/03/12 04:10:39;;;;;;;62.00;26.37;;;-0.40;79.00;;;;;;4988404;28;20718;-84
2022/03/12 04:13:28;;;;;;;53.60;22.67;;;-0.40;79.40;;;;;;4978686;28;20239;-82
2022/03/12 04:16:18;;;;;;;51.40;22.83;;;-0.40;78.70;;;;;;4999034;28;20234;-82
2022/03/12 04:19:08;;;;;;;49.27;23.40;;;-0.40;77.70;;;;;;4999538;28;20542;-82
2022/03/12 04:21:57;;;;;;;59.37;23.87;;;-0.40;77.10;;;;;;4986845;28;20997;-82
2022/03/12 04:24:48;;;;;;;64.93;27.23;;;-0.40;76.80;;;;;;4987456;28;20348;-83
2022/03/12 04:27:38;;;;;;;63.73;28.20;;;-0.40;76.90;;;;;;4981539;28;20310;-83
2022/03/12 04:30:28;;;;;;;76.23;29.93;;;-0.50;77.70;;;;;;4987134;28;20236;-84
2022/03/12 04:33:19;;;;;;;89.07;36.90;;;-0.50;78.30;;;;;;4983095;28;20236;-82
2022/03/12 04:36:09;;;;;;;105.97;41.23;;;-0.50;79.60;;;;;;4984108;28;20242;-83
2022/03/12 04:38:58;;;;;;;104.27;43.10;;;-0.50;82.20;;;;;;4985451;28;20322;-82
2022/03/12 04:41:49;;;;;;;109.67;43.07;;;-0.50;85.80;;;;;;4982833;28;20212;-81
2022/03/12 04:44:38;;;;;;;117.60;46.70;;;-0.50;89.40;;;;;;4986095;28;20231;-82
2022/03/12 04:47:27;;;;;;;111.50;46.07;;;-0.60;92.50;;;;;;4987128;28;20345;-82
2022/03/12 04:50:18;;;;;;;116.53;46.67;;;-0.60;94.00;;;;;;4981362;28;20237;-83
2022/03/12 04:53:08;;;;;;;111.70;44.57;;;-0.70;94.10;;;;;;4989334;28;20250;-81
2022/03/12 04:55:57;;;;;;;116.90;47.70;;;-0.70;96.10;;;;;;4995318;28;20211;-82
2022/03/12 04:58:47;;;;;;;121.57;47.13;;;-0.70;96.60;;;;;;4992074;28;21900;-83
2022/03/12 05:01:36;;;;;;;118.20;46.97;;;-0.80;99.30;;;;;;4991888;28;20244;-82
2022/03/12 05:04:25;;;;;;;133.17;51.40;;;-0.70;99.90;;;;;;5004624;28;20283;-81
2022/03/12 05:07:14;;;;;;;125.37;50.93;;;-0.70;99.90;;;;;;5005750;28;20285;-81
2022/03/12 05:10:05;;;;;;;132.00;50.70;;;-0.70;99.90;;;;;;4986194;28;20630;-83
2022/03/12 05:12:58;;;;;;;132.77;52.90;;;-0.80;99.90;;;;;;5000195;28;20299;-83
2022/03/12 05:15:51;;;;;;;134.23;52.17;;;-0.80;99.90;;;;;;5006623;28;20198;-82
2022/03/12 05:18:40;;;;;;;134.33;53.67;;;-0.90;99.90;;;;;;5000574;28;20215;-83
2022/03/12 05:21:29;;;;;;;142.70;54.70;;;-0.90;99.90;;;;;;5005466;28;20323;-82
2022/03/12 05:24:18;;;;;;;139.60;54.20;;;-0.90;99.90;;;;;;4991728;28;20238;-82
2022/03/12 05:27:08;;;;;;;142.00;55.03;;;-1.00;99.90;;;;;;4982674;28;20211;-81
2022/03/12 05:29:56;;;;;;;133.80;50.97;;;-1.00;99.90;;;;;;4988126;28;20230;-82
2022/03/12 05:32:47;;;;;;;129.20;50.97;;;-1.00;99.90;;;;;;4988033;28;20539;-82
2022/03/12 05:35:41;;;;;;;132.30;51.97;;;-1.00;99.90;;;;;;4991671;28;20309;-83
2022/03/12 05:38:35;;;;;;;127.63;49.50;;;-1.00;99.90;;;;;;4988162;28;20221;-82
2022/03/12 05:41:24;;;;;;;124.60;48.30;;;-0.90;99.90;;;;;;4989487;28;20975;-82
2022/03/12 05:44:16;;;;;;;131.40;47.90;;;-0.90;99.90;;;;;;4987964;28;20758;-83
2022/03/12 05:47:06;;;;;;;113.23;45.43;;;-0.80;99.90;;;;;;4990975;28;20362;-82
2022/03/12 05:49:57;;;;;;;117.97;46.07;;;-0.90;99.90;;;;;;5002790;28;20226;-83
2022/03/12 05:52:49;;;;;;;118.70;46.87;;;-0.90;99.90;;;;;;4991888;28;20233;-83
2022/03/12 05:55:39;;;;;;;124.83;49.47;;;-0.80;99.90;;;;;;4991151;28;20724;-84
2022/03/12 05:58:32;;;;;;;125.03;50.40;;;-0.80;99.90;;;;;;5004812;28;20226;-84
2022/03/12 06:01:21;;;;;;;121.33;49.50;;;-0.70;99.90;;;;;;4991759;28;20222;-84
2022/03/12 06:04:12;;;;;;;131.03;48.93;;;-0.80;99.90;;;;;;5001614;28;21024;-84
2022/03/12 06:07:02;;;;;;;120.60;46.40;;;-0.80;99.90;;;;;;4991099;28;20228;-83
2022/03/12 06:09:50;;;;;;;118.80;46.80;;;-0.80;99.90;;;;;;4994305;28;20245;-82
2022/03/12 06:12:43;;;;;;;121.93;47.87;;;-0.80;99.90;;;;;;4993642;28;20222;-82
2022/03/12 06:15:32;;;;;;;107.77;45.87;;;-0.80;99.90;;;;;;4991257;28;20245;-81
2022/03/12 06:18:24;;;;;;;118.43;45.00;;;-0.70;99.90;;;;;;4979071;28;20300;-81
2022/03/12 06:21:12;;;;;;;120.73;48.43;;;-0.70;99.90;;;;;;5002208;28;21016;-82
2022/03/12 06:24:03;;;;;;;123.83;50.80;;;-0.70;99.90;;;;;;4990213;28;20888;-81
2022/03/12 06:26:52;;;;;;;121.10;49.03;;;-0.70;99.90;;;;;;4995422;28;20230;-81
2022/03/12 06:29:41;;;;;;;127.40;50.77;;;-0.70;99.90;;;;;;4985848;28;20224;-81
2022/03/12 06:32:30;;;;;;;130.27;51.47;;;-0.60;99.90;;;;;;4993301;28;20804;-81
2022/03/12 06:35:19;;;;;;;128.40;51.73;;;-0.50;99.90;;;;;;4995726;28;20214;-83
2022/03/12 06:38:10;;;;;;;134.57;51.23;;;-0.30;99.90;;;;;;4998620;28;20223;-85
2022/03/12 06:41:00;;;;;;;124.30;50.57;;;-0.20;99.90;;;;;;4998088;28;20676;-85
2022/03/12 06:43:50;;;;;;;110.23;45.23;;;-0.10;99.90;;;;;;4997142;28;20243;-85
2022/03/12 06:46:39;;;;;;;105.87;42.63;;;0.00;99.90;;;;;;4998571;28;20234;-86
2022/03/12 06:49:29;;;;;;;110.23;44.10;;;0.10;94.50;;;;;;5009941;28;20325;-88
2022/03/12 06:52:18;;;;;;;109.40;43.87;;;0.30;91.60;;;;;;5002233;28;20229;-87
2022/03/12 06:55:09;;;;;;;101.37;42.50;;;0.30;90.90;;;;;;4989879;28;20218;-87
2022/03/12 06:58:00;;;;;;;97.13;41.60;;;0.40;88.70;;;;;;4991025;28;20227;-87
2022/03/12 07:00:49;;;;;;;103.87;40.57;;;0.50;86.90;;;;;;4992419;28;20241;-88
2022/03/12 07:03:38;;;;;;;106.60;39.57;;;0.60;85.10;;;;;;4989559;28;20684;-87
2022/03/12 07:06:27;;;;;;;96.37;41.20;;;0.70;84.50;;;;;;4992778;28;20295;-87
2022/03/12 07:09:16;;;;;;;96.50;40.03;;;0.80;83.50;;;;;;5005413;28;20222;-86
2022/03/12 07:12:06;;;;;;;90.30;38.67;;;1.00;82.30;;;;;;5002453;28;20329;-86
2022/03/12 07:14:56;;;;;;;92.63;38.67;;;1.00;81.10;;;;;;4987461;28;20247;-84
2022/03/12 07:17:45;;;;;;;94.83;40.40;;;1.10;81.30;;;;;;4991640;28;20582;-84
2022/03/12 07:20:34;;;;;;;95.60;39.17;;;1.20;81.60;;;;;;4987402;28;20211;-84
2022/03/12 07:23:23;;;;;;;79.30;36.63;;;1.40;81.00;;;;;;5002394;28;20464;-85
2022/03/12 07:26:12;;;;;;;68.30;31.30;;;1.50;80.00;;;;;;4984800;28;20587;-83
2022/03/12 07:29:01;;;;;;;52.70;25.57;;;1.60;77.30;;;;;;4980771;28;20219;-81
2022/03/12 07:31:51;;;;;;;52.53;22.83;;;1.70;74.30;;;;;;4981777;28;20313;-80
2022/03/12 07:34:40;;;;;;;52.53;23.43;;;1.70;72.40;;;;;;4984297;28;20230;-84
2022/03/12 07:37:29;;;;;;;54.80;23.70;;;1.80;72.00;;;;;;4986326;28;20225;-84
2022/03/12 07:40:19;;;;;;;58.40;24.33;;;1.90;70.60;;;;;;4989880;28;20365;-84
2022/03/12 07:43:08;;;;;;;49.00;22.30;;;1.90;70.80;;;;;;4987110;28;20310;-86
2022/03/12 07:45:57;;;;;;;39.13;18.00;;;1.90;70.70;;;;;;4985320;28;20258;-86
2022/03/12 07:48:48;;;;;;;37.40;16.93;;;2.00;69.60;;;;;;4990031;28;20226;-87
2022/03/12 07:51:36;;;;;;;39.20;18.03;;;2.00;68.70;;;;;;4990388;28;20253;-86
2022/03/12 07:54:25;;;;;;;36.47;16.20;;;2.00;68.20;;;;;;5004197;28;20578;-85
2022/03/12 07:57:14;;;;;;;31.43;15.20;;;2.10;68.10;;;;;;5006669;28;20317;-81
2022/03/12 08:00:06;;;;;;;34.10;15.77;;;2.10;67.50;;;;;;5000974;28;20733;-82
2022/03/12 08:03:01;;;;;;;29.90;13.40;;;2.30;67.10;;;;;;4990990;28;20226;-84
2022/03/12 08:05:52;;;;;;;32.83;14.67;;;2.50;66.10;;;;;;4989104;28;20254;-84
2022/03/12 08:08:41;;;;;;;36.97;15.13;;;2.80;65.00;;;;;;4988087;28;20274;-84
2022/03/12 08:11:32;;;;;;;33.30;14.00;;;3.90;64.90;;;;;;4988510;28;20237;-83
2022/03/12 08:14:22;;;;;;;24.00;9.67;;;8.00;59.30;;;;;;5003555;28;20297;-84
2022/03/12 08:17:11;;;;;;;20.33;11.07;;;10.10;53.30;;;;;;4982769;28;20222;-84
2022/03/12 08:20:00;;;;;;;19.50;11.60;;;11.50;49.00;;;;;;4988550;28;20233;-83
2022/03/12 08:22:50;;;;;;;22.70;11.10;;;12.40;46.80;;;;;;4995340;28;20231;-85
2022/03/12 08:25:39;;;;;;;22.07;11.37;;;12.60;46.00;;;;;;4989234;28;20690;-83
2022/03/12 08:28:29;;;;;;;21.37;11.20;;;13.40;44.40;;;;;;4987775;28;20219;-85
2022/03/12 08:31:18;;;;;;;22.17;10.87;;;13.90;43.50;;;;;;4986741;28;20252;-83
2022/03/12 08:34:08;;;;;;;20.93;11.33;;;14.20;42.50;;;;;;4985518;28;20225;-85
2022/03/12 08:36:57;;;;;;;18.67;10.18;;;14.80;41.40;;;;;;4985782;28;20294;-84
2022/03/12 08:39:48;;;;;;;17.50;9.50;;;15.30;40.30;;;;;;4988204;28;20659;-83
2022/03/12 08:42:37;;;;;;;20.02;9.57;;;16.20;39.20;;;;;;4999447;28;20234;-82
2022/03/12 08:45:28;;;;;;;17.67;8.50;;;16.70;37.80;;;;;;4998666;28;20242;-85
2022/03/12 08:48:17;;;;;;;15.10;8.52;;;16.60;37.80;;;;;;4987773;28;20235;-83
2022/03/12 08:51:07;;;;;;;20.65;8.52;;;17.30;36.80;;;;;;4997298;28;20239;-80
2022/03/12 08:53:56;;;;;;;14.85;8.48;;;17.20;37.10;;;;;;4994572;28;20597;-80
2022/03/12 08:56:47;;;;;;;15.88;9.20;;;17.40;35.70;;;;;;4992176;28;20223;-80
2022/03/12 08:59:36;;;;;;;20.30;9.77;;;17.90;35.40;;;;;;5009972;28;20229;-80
2022/03/12 09:02:25;;;;;;;18.92;10.60;;;18.20;35.50;;;;;;5003231;28;21453;-81
2022/03/12 09:05:15;;;;;;;17.95;9.10;;;18.10;34.90;;;;;;4989398;28;20233;-81
2022/03/12 09:08:05;;;;;;;15.90;9.38;;;18.10;35.00;;;;;;4993774;28;20234;-80
2022/03/12 09:10:55;;;;;;;14.32;8.88;;;18.10;35.20;;;;;;5011333;28;20332;-83
2022/03/12 09:13:46;;;;;;;13.55;7.80;;;18.00;35.20;;;;;;5003689;28;20227;-83
2022/03/12 09:16:36;;;;;;;16.40;7.55;;;18.20;34.50;;;;;;5011423;28;20346;-83
2022/03/12 09:19:25;;;;;;;14.30;8.43;;;14.90;34.80;;;;;;5018505;28;20242;-83
2022/03/12 09:22:14;;;;;;;13.60;8.25;;;12.70;38.10;;;;;;5017971;28;20221;-83
2022/03/12 09:25:04;;;;;;;10.70;6.30;;;11.10;40.50;;;;;;4995973;28;20225;-83
2022/03/12 09:27:53;;;;;;;12.40;6.23;;;10.10;41.50;;;;;;5008480;28;20225;-82
2022/03/12 09:30:45;;;;;;;12.27;6.70;;;9.20;42.90;;;;;;4994447;28;20210;-82
2022/03/12 09:33:35;;;;;;;12.53;6.57;;;8.60;44.70;;;;;;5009055;28;20216;-87
2022/03/12 09:36:25;;;;;;;13.53;6.30;;;8.10;45.70;;;;;;4996914;28;20230;-83
2022/03/12 09:39:14;;;;;;;10.20;5.53;;;7.90;46.10;;;;;;4996373;28;20697;-82
2022/03/12 09:42:04;;;;;;;9.10;5.33;;;7.80;45.90;;;;;;5008486;28;20308;-83
2022/03/12 09:44:53;;;;;;;9.37;4.97;;;7.30;46.90;;;;;;5004607;28;20257;-78
2022/03/12 09:47:44;;;;;;;12.30;4.60;;;7.10;46.80;;;;;;5001782;28;20222;-80
2022/03/12 09:50:34;;;;;;;12.83;5.57;;;7.10;46.80;;;;;;5007453;28;20315;-80
2022/03/12 09:53:23;;;;;;;12.20;7.07;;;7.10;46.90;;;;;;4988461;28;20724;-80
2022/03/12 09:56:12;;;;;;;15.27;7.97;;;6.90;47.90;;;;;;4988097;28;20651;-79
2022/03/12 09:59:01;;;;;;;14.27;6.10;;;6.60;49.00;;;;;;4991462;28;20230;-80
2022/03/12 10:01:50;;;;;;;15.20;5.93;;;6.60;49.00;;;;;;5004291;28;20727;-79
2022/03/12 10:04:41;;;;;;;13.20;7.10;;;6.40;49.40;;;;;;4987652;28;20839;-80
2022/03/12 10:07:34;;;;;;;13.90;6.60;;;6.50;49.60;;;;;;5005364;28;20681;-80
2022/03/12 10:10:25;;;;;;;11.70;5.30;;;6.40;49.30;;;;;;4992259;28;20222;-83
2022/03/12 10:13:14;;;;;;;9.50;5.13;;;6.30;49.20;;;;;;5007853;28;20222;-79
2022/03/12 10:16:04;;;;;;;10.97;5.47;;;6.40;48.50;;;;;;5007446;28;20237;-81
2022/03/12 10:18:53;;;;;;;14.93;6.00;;;6.40;48.20;;;;;;5002599;28;20225;-80
2022/03/12 10:21:45;;;;;;;10.57;5.80;;;6.40;48.50;;;;;;4983830;28;21002;-81
2022/03/12 10:24:37;;;;;;;10.77;5.40;;;6.50;48.90;;;;;;4985362;28;20237;-83
2022/03/12 10:27:27;;;;;;;8.73;5.27;;;6.20;49.80;;;;;;4999531;28;20232;-83
2022/03/12 10:30:16;;;;;;;12.90;5.80;;;6.30;49.20;;;;;;4993127;28;20217;-82
2022/03/12 10:33:05;;;;;;;10.40;5.10;;;6.30;48.70;;;;;;4992060;28;20234;-84
2022/03/12 10:35:54;;;;;;;13.30;5.83;;;6.30;48.40;;;;;;4994163;28;20236;-81
2022/03/12 10:38:47;;;;;;;12.43;6.20;;;5.90;49.00;;;;;;4991814;28;20581;-88
2022/03/12 10:41:36;;;;;;;10.63;6.33;;;5.70;49.50;;;;;;5003657;28;20213;-79
2022/03/12 10:44:36;;;;;;;15.60;6.70;;;5.80;49.90;;;;;;5002234;28;20855;-79
2022/03/12 10:47:26;;;;;;;14.33;5.53;;;5.80;50.20;;;;;;5002820;28;20224;-80
2022/03/12 10:50:18;;;;;;;11.03;5.80;;;5.90;49.60;;;;;;4986386;28;20933;-81
2022/03/12 10:53:07;;;;;;;13.20;5.87;;;6.00;49.20;;;;;;4989078;28;20249;-80
2022/03/12 10:55:58;;;;;;;11.63;5.27;;;6.00;49.40;;;;;;4987229;28;20226;-79
2022/03/12 10:58:46;;;;;;;12.13;5.70;;;6.00;49.20;;;;;;4989628;28;20237;-79
2022/03/12 11:01:35;;;;;;;11.90;5.30;;;6.10;48.80;;;;;;5002484;28;20218;-79
2022/03/12 11:04:29;;;;;;;13.17;5.33;;;6.10;48.60;;;;;;4990928;28;20221;-79
2022/03/12 11:07:26;;;;;;;13.97;5.80;;;6.20;48.50;;;;;;5001109;28;20597;-78
2022/03/12 11:10:23;;;;;;;10.63;5.83;;;6.20;48.50;;;;;;5001393;28;20243;-81
2022/03/12 11:13:38;;;;;;;13.13;5.70;;;6.10;48.40;;;;;;5003646;28;20725;-79
2022/03/12 11:16:32;;;;;;;10.27;5.27;;;6.00;48.70;;;;;;4993150;28;20344;-78
2022/03/12 11:19:37;;;;;;;9.63;5.13;;;6.00;48.80;;;;;;4992361;28;20226;-78
2022/03/12 11:22:26;;;;;;;11.37;5.17;;;6.00;49.10;;;;;;4991873;28;20249;-79
2022/03/12 11:25:20;;;;;;;10.57;5.70;;;6.00;48.40;;;;;;4989167;28;20227;-78
2022/03/12 11:28:20;;;;;;;13.10;6.97;;;6.00;48.40;;;;;;5013750;28;20230;-87
2022/03/12 11:31:10;;;;;;;12.83;6.23;;;6.10;48.60;;;;;;4995291;28;20217;-85
2022/03/12 11:34:14;;;;;;;11.53;6.00;;;6.20;48.30;;;;;;4994946;28;20221;-85
2022/03/12 11:37:13;;;;;;;13.20;6.90;;;5.90;48.40;;;;;;5011807;28;20229;-86
2022/03/12 11:40:11;;;;;;;13.53;6.27;;;6.10;48.70;;;;;;4995166;28;20222;-79
2022/03/12 11:43:02;;;;;;;12.50;6.50;;;6.10;48.90;;;;;;4991368;28;20578;-78
2022/03/12 11:46:15;;;;;;;11.73;6.50;;;6.00;49.30;;;;;;4993917;28;20218;-79
2022/03/12 11:49:05;;;;;;;14.10;6.97;;;6.00;49.60;;;;;;5005299;28;20240;-78
2022/03/12 11:51:56;;;;;;;13.57;6.60;;;5.90;49.60;;;;;;5004300;28;20222;-79
2022/03/12 11:54:46;;;;;;;14.53;6.70;;;6.10;49.70;;;;;;4989393;28;20230;-79
2022/03/12 11:57:36;;;;;;;11.40;6.37;;;6.20;49.80;;;;;;5002448;28;20254;-79
2022/03/12 12:00:28;;;;;;;14.17;6.77;;;6.20;49.50;;;;;;5003376;28;20289;-78
2022/03/12 12:03:18;;;;;;;17.63;6.97;;;6.20;49.50;;;;;;5007826;28;20238;-78
2022/03/12 12:06:07;;;;;;;12.50;5.73;;;6.30;49.30;;;;;;5004488;28;20641;-78
2022/03/12 12:08:57;;;;;;;14.17;6.20;;;6.40;48.90;;;;;;5003875;28;20237;-79
2022/03/12 12:11:46;;;;;;;12.57;6.47;;;6.40;48.10;;;;;;5010314;28;20230;-78
2022/03/12 12:14:36;;;;;;;10.63;6.03;;;6.40;47.90;;;;;;5005823;28;20309;-78
2022/03/12 12:17:24;;;;;;;12.10;5.63;;;6.30;47.60;;;;;;5003341;28;20279;-79
2022/03/12 12:20:18;;;;;;;11.40;6.70;;;6.30;47.60;;;;;;5005725;28;20260;-80
2022/03/12 12:23:07;;;;;;;13.00;6.83;;;6.40;48.10;;;;;;5004234;28;20222;-79
2022/03/12 12:26:08;;;;;;;12.17;7.13;;;6.40;48.40;;;;;;5005138;28;20403;-80
2022/03/12 12:28:57;;;;;;;11.73;6.97;;;6.40;48.80;;;;;;4987082;28;20234;-81
2022/03/12 12:31:46;;;;;;;13.73;6.97;;;6.40;48.80;;;;;;4994745;28;20215;-79
2022/03/12 12:34:35;;;;;;;13.70;6.83;;;6.40;48.80;;;;;;4992756;28;20597;-80
2022/03/12 12:37:44;;;;;;;13.37;6.80;;;6.50;48.60;;;;;;5005683;28;20309;-81
2022/03/12 12:40:36;;;;;;;11.80;6.77;;;6.60;48.20;;;;;;5003217;28;20222;-79
2022/03/12 12:43:33;;;;;;;11.17;6.73;;;6.60;48.10;;;;;;4989419;28;20253;-79
2022/03/12 12:46:21;;;;;;;13.83;6.67;;;6.40;48.30;;;;;;4992519;28;20221;-79
2022/03/12 12:49:12;;;;;;;12.30;6.37;;;6.50;48.50;;;;;;5008883;28;20218;-79
2022/03/12 12:52:02;;;;;;;13.10;6.07;;;6.60;47.80;;;;;;5004436;28;20933;-79
2022/03/12 12:54:57;;;;;;;14.03;6.47;;;6.60;46.90;;;;;;5005278;28;20317;-79
2022/03/12 12:57:47;;;;;;;13.33;6.27;;;6.70;46.80;;;;;;4992754;28;20234;-79
2022/03/12 13:00:41;;;;;;;10.40;6.03;;;6.60;46.90;;;;;;4991096;28;20226;-78
2022/03/12 13:03:46;;;;;;;14.17;6.83;;;6.60;47.30;;;;;;5006757;28;20386;-79
2022/03/12 13:06:46;;;;;;;11.63;6.83;;;6.70;47.40;;;;;;4992656;28;20226;-79
2022/03/12 13:10:02;;;;;;;9.80;5.93;;;6.70;47.20;;;;;;4988970;28;20234;-78
2022/03/12 13:12:51;;;;;;;10.00;5.53;;;6.70;47.40;;;;;;5006031;28;20242;-80
2022/03/12 13:15:41;;;;;;;11.20;6.00;;;6.60;46.50;;;;;;5015636;28;20218;-80
2022/03/12 13:18:40;;;;;;;11.07;6.07;;;6.70;46.40;;;;;;5020777;28;20580;-79
2022/03/12 13:21:33;;;;;;;16.37;6.83;;;6.70;46.50;;;;;;5005451;28;20214;-79
2022/03/12 13:24:23;;;;;;;12.10;5.87;;;6.70;47.00;;;;;;5000494;28;20226;-78
2022/03/12 13:27:23;;;;;;;11.17;6.00;;;6.70;47.00;;;;;;5006933;28;20233;-79
2022/03/12 13:30:18;;;;;;;13.67;5.87;;;6.80;47.00;;;;;;5005902;28;20233;-79
2022/03/12 13:33:11;;;;;;;12.20;6.40;;;6.80;46.90;;;;;;5007999;28;20794;-78
2022/03/12 13:36:00;;;;;;;13.23;6.43;;;6.90;46.20;;;;;;4989319;28;20723;-80
2022/03/12 13:38:53;;;;;;;14.47;7.87;;;6.90;45.90;;;;;;4990026;28;21664;-80
2022/03/12 13:41:47;;;;;;;13.10;6.50;;;6.80;45.80;;;;;;4990112;28;20519;-80
2022/03/12 13:44:40;;;;;;;13.20;7.13;;;6.80;45.60;;;;;;4988007;28;20233;-79
2022/03/12 13:47:29;;;;;;;13.77;7.20;;;6.70;45.50;;;;;;5002616;28;20219;-82
2022/03/12 13:50:19;;;;;;;10.93;6.53;;;6.70;45.80;;;;;;5001405;28;20214;-78
2022/03/12 13:53:13;;;;;;;10.40;6.20;;;6.90;44.90;;;;;;5002707;28;20226;-78
2022/03/12 13:56:04;;;;;;;13.07;6.33;;;6.90;44.50;;;;;;5001594;28;20232;-78
2022/03/12 13:58:54;;;;;;;14.77;7.30;;;6.90;44.90;;;;;;5000642;28;20259;-80
2022/03/12 14:01:47;;;;;;;15.03;6.80;;;6.90;45.50;;;;;;4989468;28;20241;-79
2022/03/12 14:04:36;;;;;;;15.57;6.90;;;6.80;45.70;;;;;;5000744;28;20214;-79
2022/03/12 14:07:38;;;;;;;14.10;6.97;;;6.80;46.00;;;;;;4988394;28;20248;-80
2022/03/12 14:10:30;;;;;;;12.37;6.57;;;6.90;45.10;;;;;;4988005;28;20742;-80
2022/03/12 14:13:20;;;;;;;10.40;5.20;;;6.90;44.30;;;;;;4990118;28;20238;-83
2022/03/12 14:16:14;;;;;;;8.80;5.37;;;6.90;43.30;;;;;;4989712;28;20229;-84
2022/03/12 14:19:07;;;;;;;10.80;5.50;;;6.80;42.50;;;;;;5006049;28;20218;-82
2022/03/12 14:21:57;;;;;;;10.07;6.20;;;6.80;43.10;;;;;;4984695;28;20709;-85
2022/03/12 14:24:46;;;;;;;12.33;6.40;;;6.90;43.00;;;;;;4990445;28;20337;-84
2022/03/12 14:27:37;;;;;;;17.33;7.40;;;6.90;43.30;;;;;;5010428;28;20226;-83
2022/03/12 14:30:26;;;;;;;12.87;6.70;;;6.90;44.20;;;;;;4994086;28;20234;-82
2022/03/12 14:33:16;;;;;;;11.37;6.70;;;7.00;44.50;;;;;;4995259;28;20320;-83
2022/03/12 14:36:07;;;;;;;10.43;6.93;;;6.90;44.40;;;;;;4995902;28;20709;-83